Time;durP1;ratioP1;P1;durP2;ratioP2;P2;SDS_P1;SDS_P2;PMS_P1;PMS_P2;Temp;Humidity;BMP_temperature;BMP_pressure;BME280_temperature;BME280_humidity;BME280_pressure;Samples;Min_cycle;Max_cycle;Signal;HPM_P1;HPM_P2
2022/12/04 00:00:16;;;;;;;46.08;26.30;;;0.90;99.90;;;;;;7377874;19;20442;-50
2022/12/04 00:02:42;;;;;;;53.38;26.70;;;0.90;99.90;;;;;;7372004;19;20042;-49
2022/12/04 00:05:09;;;;;;;49.08;28.00;;;0.90;99.90;;;;;;7373117;19;20368;-49
2022/12/04 00:07:35;;;;;;;45.47;26.92;;;0.90;99.90;;;;;;7375602;19;20018;-51
2022/12/04 00:10:02;;;;;;;49.55;25.80;;;0.90;99.90;;;;;;7376144;19;20117;-49
2022/12/04 00:12:29;;;;;;;46.60;26.10;;;0.90;99.90;;;;;;7376612;19;20018;-48
2022/12/04 00:14:55;;;;;;;48.47;28.85;;;0.90;99.90;;;;;;7371713;19;20025;-49
2022/12/04 00:17:21;;;;;;;43.53;23.20;;;1.00;99.90;;;;;;7374623;19;20022;-48
2022/12/04 00:19:47;;;;;;;37.15;19.70;;;1.00;99.90;;;;;;7374443;19;20544;-48
2022/12/04 00:22:14;;;;;;;44.05;26.80;;;0.90;99.90;;;;;;7373566;19;20021;-51
2022/12/04 00:24:44;;;;;;;45.22;26.42;;;0.90;99.90;;;;;;7372159;19;20436;-47
2022/12/04 00:27:10;;;;;;;42.80;22.83;;;0.90;99.90;;;;;;7376889;19;20641;-48
2022/12/04 00:29:36;;;;;;;44.40;25.90;;;0.90;99.90;;;;;;7374497;19;20019;-44
2022/12/04 00:32:02;;;;;;;50.63;27.02;;;0.90;99.90;;;;;;7381355;19;20014;-51
2022/12/04 00:34:29;;;;;;;48.63;28.38;;;0.90;99.90;;;;;;7374767;19;20025;-50
2022/12/04 00:36:55;;;;;;;45.08;24.02;;;1.00;99.90;;;;;;7381037;19;20043;-44
2022/12/04 00:39:21;;;;;;;47.40;26.50;;;0.90;99.90;;;;;;7380195;19;20749;-50
2022/12/04 00:41:48;;;;;;;47.42;26.75;;;0.90;99.90;;;;;;7381207;19;20015;-49
2022/12/04 00:44:17;;;;;;;49.25;27.30;;;0.90;99.90;;;;;;7377135;19;20025;-50
2022/12/04 00:46:43;;;;;;;44.22;27.10;;;0.90;99.90;;;;;;7377617;19;20039;-47
2022/12/04 00:49:12;;;;;;;49.20;25.95;;;0.90;99.90;;;;;;7378951;19;20022;-46
2022/12/04 00:51:38;;;;;;;48.08;26.58;;;0.90;99.90;;;;;;7377767;19;20022;-50
2022/12/04 00:54:05;;;;;;;51.10;29.15;;;0.90;99.90;;;;;;7376379;19;20026;-44
2022/12/04 00:56:31;;;;;;;47.17;28.58;;;0.90;99.90;;;;;;7375052;19;20018;-47
2022/12/04 00:59:00;;;;;;;42.92;25.95;;;0.90;99.90;;;;;;7377780;19;20019;-48
2022/12/04 01:01:27;;;;;;;41.63;24.13;;;0.90;99.90;;;;;;7378469;19;20082;-46
2022/12/04 01:03:54;;;;;;;50.03;29.23;;;0.90;99.90;;;;;;7379572;19;20021;-45
2022/12/04 01:06:25;;;;;;;41.42;23.45;;;0.80;99.90;;;;;;7379405;19;20089;-44
2022/12/04 01:08:53;;;;;;;48.67;25.38;;;0.90;99.90;;;;;;7377064;19;20015;-46
2022/12/04 01:11:21;;;;;;;47.25;28.35;;;0.90;99.90;;;;;;7378631;19;20375;-45
2022/12/04 01:13:48;;;;;;;48.58;26.88;;;0.90;99.90;;;;;;7379050;19;20075;-44
2022/12/04 01:16:27;;;;;;;47.83;27.67;;;0.90;99.90;;;;;;7376153;19;20074;-47
2022/12/04 01:18:53;;;;;;;41.47;24.52;;;0.90;99.90;;;;;;7373501;19;20506;-48
2022/12/04 01:21:20;;;;;;;45.33;27.23;;;0.90;99.90;;;;;;7374483;19;20018;-49
2022/12/04 01:23:48;;;;;;;47.97;28.33;;;0.90;99.90;;;;;;7378977;19;20024;-51
2022/12/04 01:26:14;;;;;;;48.22;28.00;;;0.90;99.90;;;;;;7375310;19;20413;-48
2022/12/04 01:28:41;;;;;;;48.65;26.60;;;0.90;99.90;;;;;;7378306;19;20121;-45
2022/12/04 01:31:13;;;;;;;45.47;28.35;;;0.90;99.90;;;;;;7375732;19;20019;-46
2022/12/04 01:33:40;;;;;;;51.05;27.10;;;0.90;99.90;;;;;;7373665;19;20019;-48
2022/12/04 01:36:11;;;;;;;48.25;26.88;;;0.90;99.90;;;;;;7373251;19;20010;-49
2022/12/04 01:38:38;;;;;;;47.60;24.15;;;0.80;99.90;;;;;;7376208;19;20014;-50
2022/12/04 01:41:07;;;;;;;42.35;24.42;;;0.80;99.90;;;;;;7376781;19;20042;-47
2022/12/04 01:43:34;;;;;;;47.22;27.25;;;0.90;99.90;;;;;;7366860;19;20047;-47
2022/12/04 01:46:02;;;;;;;44.97;26.58;;;0.80;99.90;;;;;;7376526;19;20658;-49
2022/12/04 01:48:39;;;;;;;45.28;27.17;;;0.80;99.90;;;;;;7377943;19;20030;-48
2022/12/04 01:51:34;;;;;;;41.83;23.35;;;0.90;99.90;;;;;;7370901;19;20046;-50
2022/12/04 01:54:19;;;;;;;50.05;28.35;;;0.90;99.90;;;;;;7375049;19;20494;-50
2022/12/04 01:56:51;;;;;;;49.90;28.30;;;0.90;99.90;;;;;;7378083;19;20006;-50
2022/12/04 01:59:22;;;;;;;49.17;28.25;;;0.90;99.90;;;;;;7372773;19;20017;-48
2022/12/04 02:01:58;;;;;;;51.88;29.63;;;0.80;99.90;;;;;;7375691;19;20038;-50
2022/12/04 02:04:24;;;;;;;46.03;26.48;;;0.90;99.90;;;;;;7373945;19;20014;-48
2022/12/04 02:06:51;;;;;;;44.65;25.85;;;0.80;99.90;;;;;;7374872;19;20097;-49
2022/12/04 02:09:18;;;;;;;45.38;25.17;;;0.80;99.90;;;;;;7373012;19;20014;-46
2022/12/04 02:12:13;;;;;;;46.67;28.40;;;0.80;99.90;;;;;;7376781;19;20542;-50
2022/12/04 02:15:11;;;;;;;52.40;28.35;;;0.80;99.90;;;;;;7372487;19;20022;-47
2022/12/04 02:17:52;;;;;;;50.47;28.17;;;0.80;99.90;;;;;;7374794;19;20019;-50
2022/12/04 02:20:42;;;;;;;40.45;23.90;;;0.80;99.90;;;;;;7373432;19;20014;-46
2022/12/04 02:23:43;;;;;;;52.63;29.65;;;0.80;99.90;;;;;;7372745;19;20041;-48
2022/12/04 02:26:28;;;;;;;47.55;26.95;;;0.80;99.90;;;;;;7370069;19;20038;-48
2022/12/04 02:29:08;;;;;;;50.35;29.05;;;0.80;99.90;;;;;;7375572;19;20038;-47
2022/12/04 02:31:47;;;;;;;46.60;25.75;;;0.80;99.90;;;;;;7374742;19;20604;-49
2022/12/04 02:34:45;;;;;;;48.17;27.48;;;0.80;99.90;;;;;;7372676;19;20585;-50
2022/12/04 02:37:27;;;;;;;46.10;27.70;;;0.80;99.90;;;;;;7370767;19;20038;-46
2022/12/04 02:39:56;;;;;;;;;;;0.80;99.90;;;;;;7373759;19;20017;-51
2022/12/04 02:42:51;;;;;;;37.80;21.80;;;0.80;99.90;;;;;;7376681;19;19940;-45
2022/12/04 02:45:25;;;;;;;50.25;28.02;;;0.80;99.90;;;;;;7370666;19;20503;-50
2022/12/04 02:47:52;;;;;;;45.22;28.65;;;0.80;99.90;;;;;;7374449;19;20040;-48
2022/12/04 02:50:21;;;;;;;51.83;26.77;;;0.80;99.90;;;;;;7373522;19;20420;-48
2022/12/04 02:52:53;;;;;;;47.28;26.92;;;0.80;99.90;;;;;;7374290;19;20021;-46
2022/12/04 02:55:26;;;;;;;44.83;25.45;;;0.80;99.90;;;;;;7373453;19;20022;-50
2022/12/04 02:57:58;;;;;;;51.50;29.33;;;0.70;99.90;;;;;;7371981;19;20459;-47
2022/12/04 03:00:25;;;;;;;55.28;30.92;;;0.70;99.90;;;;;;7370564;19;20022;-50
2022/12/04 03:03:03;;;;;;;46.20;27.27;;;0.70;99.90;;;;;;7371759;19;20010;-51
2022/12/04 03:05:49;;;;;;;43.95;26.50;;;0.80;99.90;;;;;;7373451;19;20354;-50
2022/12/04 03:08:21;;;;;;;54.20;29.83;;;0.70;99.90;;;;;;7369971;19;20776;-51
2022/12/04 03:10:54;;;;;;;39.78;20.63;;;0.80;99.90;;;;;;7372320;19;20038;-51
2022/12/04 03:13:34;;;;;;;48.08;28.60;;;0.70;99.90;;;;;;7372200;19;20023;-52
2022/12/04 03:16:00;;;;;;;48.25;26.00;;;0.70;99.90;;;;;;7372799;19;20526;-51
2022/12/04 03:18:34;;;;;;;41.80;24.23;;;0.70;99.90;;;;;;7371324;19;20026;-50
2022/12/04 03:21:09;;;;;;;52.67;30.38;;;0.70;99.90;;;;;;7373858;19;20022;-52
2022/12/04 03:23:46;;;;;;;51.40;31.23;;;0.70;99.90;;;;;;7377845;19;20011;-48
2022/12/04 03:26:36;;;;;;;54.22;28.30;;;0.70;99.90;;;;;;7376465;19;20934;-51
2022/12/04 03:29:09;;;;;;;43.42;25.52;;;0.70;99.90;;;;;;7381353;19;20363;-47
2022/12/04 03:32:03;;;;;;;50.03;30.00;;;0.70;99.90;;;;;;7377565;19;20049;-46
2022/12/04 03:34:37;;;;;;;49.88;29.90;;;0.70;99.90;;;;;;7377429;19;20026;-51
2022/12/04 03:37:13;;;;;;;51.80;29.27;;;0.70;99.90;;;;;;7378187;19;20518;-50
2022/12/04 03:39:55;;;;;;;49.92;28.10;;;0.70;99.90;;;;;;7380713;19;20502;-51
2022/12/04 03:42:32;;;;;;;51.13;30.35;;;0.80;99.90;;;;;;7376698;19;20019;-51
2022/12/04 03:45:48;;;;;;;52.28;29.27;;;0.70;99.90;;;;;;7377241;19;20497;-50
2022/12/04 03:48:27;;;;;;;50.08;27.70;;;0.80;99.90;;;;;;7376995;19;20023;-50
2022/12/04 03:51:03;;;;;;;48.95;28.52;;;0.80;99.90;;;;;;7377013;19;20043;-49
2022/12/04 03:53:37;;;;;;;51.33;29.92;;;0.70;99.90;;;;;;7375732;19;20018;-49
2022/12/04 03:56:08;;;;;;;51.95;30.50;;;0.80;99.90;;;;;;7377847;19;20122;-47
2022/12/04 03:58:38;;;;;;;50.58;29.75;;;0.70;99.90;;;;;;7378647;19;20371;-49
2022/12/04 04:01:09;;;;;;;54.22;29.83;;;0.70;99.90;;;;;;7380963;19;20373;-50
2022/12/04 04:03:41;;;;;;;48.45;26.67;;;0.70;99.90;;;;;;7378443;19;20015;-47
2022/12/04 04:06:10;;;;;;;;;;;0.70;99.90;;;;;;7376221;19;20014;-49
2022/12/04 04:08:40;;;;;;;56.08;30.27;;;0.70;99.90;;;;;;7377371;19;19925;-51
2022/12/04 04:11:24;;;;;;;53.65;29.45;;;0.70;99.90;;;;;;7377024;19;20014;-48
2022/12/04 04:25:14;;;;;;;55.67;30.77;;;0.70;99.90;;;;;;7379285;19;20033;-52
2022/12/04 04:27:41;;;;;;;56.83;31.33;;;0.70;99.90;;;;;;7374412;19;20024;-48
2022/12/04 04:30:09;;;;;;;46.90;26.83;;;0.70;99.90;;;;;;7380293;19;20022;-49
2022/12/04 04:32:44;;;;;;;57.42;31.20;;;0.70;99.90;;;;;;7379456;19;20382;-48
2022/12/04 04:35:21;;;;;;;56.97;30.80;;;0.60;99.90;;;;;;7377521;19;20022;-46
2022/12/04 04:38:03;;;;;;;49.53;28.20;;;0.70;99.90;;;;;;7372703;19;20030;-47
2022/12/04 04:40:36;;;;;;;64.82;33.88;;;0.70;99.90;;;;;;7374036;19;20801;-50
2022/12/04 04:43:13;;;;;;;59.42;32.92;;;0.70;99.90;;;;;;7377992;19;20041;-51
2022/12/04 04:46:10;;;;;;;50.35;29.50;;;0.70;99.90;;;;;;7377861;19;20015;-49
2022/12/04 04:49:00;;;;;;;58.83;32.72;;;0.70;99.90;;;;;;7374122;19;20038;-47
2022/12/04 04:51:28;;;;;;;56.58;30.65;;;0.70;99.90;;;;;;7377329;19;20014;-50
2022/12/04 04:53:59;;;;;;;55.60;31.88;;;0.60;99.90;;;;;;7376798;19;20474;-48
2022/12/04 04:56:26;;;;;;;55.40;31.50;;;0.60;99.90;;;;;;7375956;19;20485;-49
2022/12/04 04:58:52;;;;;;;55.22;30.70;;;0.60;99.90;;;;;;7374823;19;20023;-48
2022/12/04 05:01:22;;;;;;;53.33;31.40;;;0.60;99.90;;;;;;7373988;19;20511;-47
2022/12/04 05:03:49;;;;;;;54.55;30.38;;;0.60;99.90;;;;;;7377105;19;20478;-52
2022/12/04 05:06:16;;;;;;;57.08;30.23;;;0.60;99.90;;;;;;7375933;19;20037;-52
2022/12/04 05:08:43;;;;;;;52.70;29.08;;;0.60;99.90;;;;;;7375895;19;20035;-47
2022/12/04 05:11:14;;;;;;;53.08;31.73;;;0.50;99.90;;;;;;7377408;19;20021;-48
2022/12/04 05:13:41;;;;;;;59.13;32.17;;;0.60;99.90;;;;;;7376335;19;20292;-49
2022/12/04 05:16:12;;;;;;;45.85;24.48;;;0.60;99.90;;;;;;7371889;19;20038;-49
2022/12/04 05:18:39;;;;;;;56.92;30.33;;;0.60;99.90;;;;;;7376610;19;20034;-47
2022/12/04 05:21:17;;;;;;;53.58;29.88;;;0.50;99.90;;;;;;7375523;19;20018;-51
2022/12/04 05:23:49;;;;;;;53.97;30.15;;;0.60;99.90;;;;;;7373816;19;20034;-49
2022/12/04 05:26:16;;;;;;;57.05;31.42;;;0.50;99.90;;;;;;7374788;19;20056;-51
2022/12/04 05:28:43;;;;;;;54.97;29.83;;;0.50;99.90;;;;;;7377656;19;20022;-49
2022/12/04 05:31:09;;;;;;;53.92;30.35;;;0.50;99.90;;;;;;7376003;19;20025;-49
2022/12/04 05:33:35;;;;;;;51.13;29.90;;;0.60;99.90;;;;;;7373365;19;20711;-47
2022/12/04 05:36:06;;;;;;;57.85;31.75;;;0.60;99.90;;;;;;7376210;19;20043;-50
2022/12/04 05:38:33;;;;;;;50.03;28.10;;;0.60;99.90;;;;;;7376273;19;20011;-51
2022/12/04 05:41:01;;;;;;;54.50;31.33;;;0.60;99.90;;;;;;7376955;19;20025;-46
2022/12/04 05:43:28;;;;;;;53.92;29.55;;;0.60;99.90;;;;;;7369885;19;20463;-45
2022/12/04 05:45:54;;;;;;;59.47;31.38;;;0.60;99.90;;;;;;7378643;19;20015;-46
2022/12/04 05:48:21;;;;;;;53.85;30.52;;;0.60;99.90;;;;;;7374721;19;20038;-46
2022/12/04 05:50:47;;;;;;;54.47;28.85;;;0.60;99.90;;;;;;7378791;19;20015;-48
2022/12/04 05:53:13;;;;;;;53.92;29.90;;;0.60;99.90;;;;;;7377252;19;20502;-47
2022/12/04 05:55:41;;;;;;;59.13;32.50;;;0.60;99.90;;;;;;7375348;19;20349;-47
2022/12/04 05:58:07;;;;;;;50.78;29.42;;;0.60;99.90;;;;;;7371983;19;20010;-50
2022/12/04 06:00:34;;;;;;;54.58;30.58;;;0.50;99.90;;;;;;7375029;19;20119;-48
2022/12/04 06:03:00;;;;;;;54.35;28.58;;;0.60;99.90;;;;;;7372912;19;20036;-47
2022/12/04 06:05:27;;;;;;;50.83;28.80;;;0.60;99.90;;;;;;7371131;19;20018;-46
2022/12/04 06:07:53;;;;;;;51.85;29.88;;;0.60;99.90;;;;;;7375398;19;20010;-47
2022/12/04 06:10:19;;;;;;;51.83;29.80;;;0.50;99.90;;;;;;7375326;19;20019;-45
2022/12/04 06:12:45;;;;;;;53.20;29.58;;;0.60;99.90;;;;;;7373325;19;20380;-46
2022/12/04 06:15:12;;;;;;;52.83;27.85;;;0.60;99.90;;;;;;7378148;19;20093;-45
2022/12/04 06:17:38;;;;;;;51.20;29.90;;;0.60;99.90;;;;;;7373055;19;20046;-45
2022/12/04 06:20:05;;;;;;;54.38;30.60;;;0.60;99.90;;;;;;7377454;19;20082;-45
2022/12/04 06:22:32;;;;;;;53.10;29.40;;;0.60;99.90;;;;;;7375831;19;20014;-45
2022/12/04 06:24:58;;;;;;;56.28;29.48;;;0.60;99.90;;;;;;7377659;19;20601;-45
2022/12/04 06:27:25;;;;;;;53.58;30.50;;;0.70;99.90;;;;;;7374197;19;20366;-46
2022/12/04 06:29:52;;;;;;;53.40;30.75;;;0.60;99.90;;;;;;7375024;19;20058;-49
2022/12/04 06:32:19;;;;;;;54.47;28.80;;;0.60;99.90;;;;;;7374338;19;20014;-49
2022/12/04 06:34:52;;;;;;;48.90;29.17;;;0.60;99.90;;;;;;7372519;19;20494;-50
2022/12/04 06:37:20;;;;;;;53.80;31.70;;;0.60;99.90;;;;;;7371393;19;20052;-57
2022/12/04 06:39:46;;;;;;;51.78;28.80;;;0.60;99.90;;;;;;7375748;19;20060;-45
2022/12/04 06:42:13;;;;;;;51.28;29.40;;;0.60;99.90;;;;;;7376839;19;20019;-49
2022/12/04 06:44:40;;;;;;;53.45;31.77;;;0.60;99.90;;;;;;7374387;19;20014;-45
2022/12/04 06:47:07;;;;;;;48.83;27.02;;;0.60;99.90;;;;;;7375407;19;20022;-45
2022/12/04 06:49:35;;;;;;;46.80;28.10;;;0.60;99.90;;;;;;7378869;19;20363;-48
2022/12/04 06:52:01;;;;;;;49.78;28.30;;;0.70;99.90;;;;;;7375127;19;20021;-45
2022/12/04 06:54:27;;;;;;;53.65;27.73;;;0.60;99.90;;;;;;7376333;19;20485;-45
2022/12/04 06:56:54;;;;;;;50.92;29.13;;;0.70;99.90;;;;;;7380860;19;20010;-47
2022/12/04 06:59:20;;;;;;;52.85;28.35;;;0.60;99.90;;;;;;7381084;19;20022;-44
2022/12/04 07:01:46;;;;;;;53.92;29.83;;;0.60;99.90;;;;;;7386898;19;20377;-46
2022/12/04 07:04:13;;;;;;;50.35;28.58;;;0.60;99.90;;;;;;7383600;19;20486;-44
2022/12/04 07:06:41;;;;;;;56.90;30.48;;;0.60;99.90;;;;;;7384275;19;20488;-43
2022/12/04 07:09:16;;;;;;;55.95;29.67;;;0.50;99.90;;;;;;7380387;19;20023;-46
2022/12/04 07:11:43;;;;;;;60.35;31.02;;;0.60;99.90;;;;;;7384576;19;20010;-46
2022/12/04 07:14:11;;;;;;;56.53;29.35;;;0.60;99.90;;;;;;7381796;19;20018;-46
2022/12/04 07:16:39;;;;;;;57.17;29.05;;;0.50;99.90;;;;;;7380474;19;20538;-46
2022/12/04 07:19:06;;;;;;;56.95;29.65;;;0.50;99.90;;;;;;7381965;19;20734;-48
2022/12/04 07:21:33;;;;;;;52.58;28.42;;;0.50;99.90;;;;;;7380984;19;20014;-49
2022/12/04 07:24:01;;;;;;;52.63;29.25;;;0.50;99.90;;;;;;7383494;19;20026;-46
2022/12/04 07:26:29;;;;;;;58.58;29.60;;;0.50;99.90;;;;;;7382593;19;20018;-52
2022/12/04 07:28:56;;;;;;;56.47;29.65;;;0.50;99.90;;;;;;7381177;19;20033;-49
2022/12/04 07:31:25;;;;;;;59.30;30.88;;;0.50;99.90;;;;;;7381257;19;20014;-48
2022/12/04 07:33:53;;;;;;;57.55;31.35;;;0.50;99.90;;;;;;7379268;19;20023;-47
2022/12/04 07:36:21;;;;;;;55.78;29.77;;;0.60;99.90;;;;;;7378585;19;20014;-46
2022/12/04 07:38:48;;;;;;;59.53;33.25;;;0.50;99.90;;;;;;7379967;19;20014;-48
2022/12/04 07:41:18;;;;;;;58.58;29.20;;;0.60;99.90;;;;;;7381804;19;20031;-46
2022/12/04 07:43:45;;;;;;;59.75;31.63;;;0.60;99.90;;;;;;7378933;19;20038;-46
2022/12/04 07:46:18;;;;;;;54.85;30.40;;;0.60;99.90;;;;;;7385344;19;20039;-45
2022/12/04 07:48:45;;;;;;;55.00;30.42;;;0.60;99.90;;;;;;7380362;19;20021;-45
2022/12/04 07:51:17;;;;;;;55.33;30.70;;;0.60;99.90;;;;;;7383939;19;20514;-46
2022/12/04 07:53:43;;;;;;;;;;;0.60;99.90;;;;;;7382696;19;20387;-46
2022/12/04 07:56:11;;;;;;;57.90;29.85;;;0.60;99.90;;;;;;7381562;19;19978;-46
2022/12/04 07:58:38;;;;;;;52.70;26.98;;;0.60;99.90;;;;;;7379498;19;20039;-45
2022/12/04 08:01:11;;;;;;;53.90;29.98;;;0.60;99.90;;;;;;7380359;19;20057;-46
2022/12/04 08:03:39;;;;;;;56.83;32.50;;;0.70;99.90;;;;;;7380362;19;20414;-47
2022/12/04 08:06:06;;;;;;;53.47;31.02;;;0.60;99.90;;;;;;7380882;19;20034;-45
2022/12/04 08:08:33;;;;;;;49.22;25.05;;;0.60;99.90;;;;;;7378564;19;20014;-47
2022/12/04 08:11:03;;;;;;;61.08;31.65;;;0.70;99.90;;;;;;7379968;19;20529;-44
2022/12/04 08:13:30;;;;;;;57.47;31.15;;;0.70;99.90;;;;;;7383013;19;20022;-49
2022/12/04 08:15:59;;;;;;;61.58;33.50;;;0.70;99.90;;;;;;7379167;19;20058;-45
2022/12/04 08:18:26;;;;;;;58.42;31.88;;;0.70;99.90;;;;;;7372618;19;20311;-47
2022/12/04 08:20:52;;;;;;;61.00;32.40;;;0.70;99.90;;;;;;7378053;19;20026;-46
2022/12/04 08:23:19;;;;;;;61.17;33.13;;;0.70;99.90;;;;;;7381326;19;20417;-45
2022/12/04 08:25:45;;;;;;;58.72;32.10;;;0.70;99.90;;;;;;7383563;19;20035;-46
2022/12/04 08:28:11;;;;;;;51.00;29.25;;;0.70;99.90;;;;;;7378838;19;20014;-48
2022/12/04 08:30:38;;;;;;;62.33;33.75;;;0.70;99.90;;;;;;7380181;19;20091;-46
2022/12/04 08:33:05;;;;;;;49.67;24.52;;;0.70;99.90;;;;;;7380818;19;20023;-46
2022/12/04 08:35:32;;;;;;;55.78;28.60;;;0.70;99.90;;;;;;7379298;19;20024;-45
2022/12/04 08:37:59;;;;;;;71.13;36.53;;;0.80;99.90;;;;;;7373732;19;20030;-45
2022/12/04 08:40:26;;;;;;;54.42;28.23;;;0.80;99.90;;;;;;7375464;19;20470;-44
2022/12/04 08:42:55;;;;;;;62.03;31.58;;;0.80;99.90;;;;;;7381003;19;20507;-47
2022/12/04 08:45:21;;;;;;;62.17;31.58;;;0.80;99.90;;;;;;7374500;19;20085;-47
2022/12/04 08:47:47;;;;;;;65.32;36.80;;;0.80;99.90;;;;;;7375477;19;20600;-45
2022/12/04 08:50:14;;;;;;;62.17;33.03;;;0.90;99.90;;;;;;7375280;19;20019;-45
2022/12/04 08:52:41;;;;;;;49.97;27.50;;;0.90;99.90;;;;;;7375834;19;20017;-45
2022/12/04 08:55:07;;;;;;;60.10;32.78;;;0.90;99.90;;;;;;7375055;19;20030;-47
2022/12/04 08:57:34;;;;;;;56.47;31.30;;;0.90;99.90;;;;;;7375260;19;20018;-47
2022/12/04 09:00:00;;;;;;;64.72;34.83;;;0.90;99.90;;;;;;7376644;19;20042;-48
2022/12/04 09:02:27;;;;;;;62.80;32.30;;;0.90;99.90;;;;;;7376634;19;20496;-46
2022/12/04 09:04:53;;;;;;;67.95;34.72;;;0.90;99.90;;;;;;7376561;19;20025;-45
2022/12/04 09:07:20;;;;;;;54.50;30.08;;;0.90;99.90;;;;;;7372179;19;20025;-48
2022/12/04 09:09:46;;;;;;;56.88;31.65;;;0.90;99.90;;;;;;7377025;19;20031;-44
2022/12/04 09:12:12;;;;;;;55.22;30.35;;;1.00;99.90;;;;;;7373482;19;20019;-45
2022/12/04 09:14:39;;;;;;;60.88;33.55;;;1.00;99.90;;;;;;7375785;19;20018;-46
2022/12/04 09:17:05;;;;;;;65.97;35.03;;;1.00;99.90;;;;;;7372450;19;20033;-46
2022/12/04 09:19:34;;;;;;;64.43;33.85;;;1.00;99.90;;;;;;7373056;19;20022;-45
2022/12/04 09:22:00;;;;;;;63.55;33.58;;;1.00;99.90;;;;;;7373156;19;20533;-46
2022/12/04 09:24:29;;;;;;;58.50;31.40;;;1.10;99.90;;;;;;7379041;19;20022;-49
2022/12/04 09:26:55;;;;;;;58.40;29.70;;;1.10;99.90;;;;;;7372945;19;20022;-49
2022/12/04 09:29:22;;;;;;;58.65;31.55;;;1.10;99.90;;;;;;7372852;19;20026;-48
2022/12/04 09:31:48;;;;;;;65.97;34.53;;;1.10;99.90;;;;;;7374972;19;20019;-45
2022/12/04 09:34:15;;;;;;;66.85;36.20;;;1.10;99.90;;;;;;7373033;19;20385;-49
2022/12/04 09:36:42;;;;;;;60.67;34.17;;;1.20;99.90;;;;;;7373701;19;20022;-49
2022/12/04 09:39:09;;;;;;;58.55;30.55;;;1.20;99.90;;;;;;7370950;19;20098;-47
2022/12/04 09:41:35;;;;;;;57.75;30.90;;;1.20;99.90;;;;;;7372522;19;20023;-47
2022/12/04 09:44:09;;;;;;;55.75;32.58;;;1.20;99.90;;;;;;7377312;19;20019;-49
2022/12/04 09:46:40;;;;;;;54.30;31.42;;;1.30;99.90;;;;;;7375876;19;20052;-45
2022/12/04 09:49:15;;;;;;;56.88;32.60;;;1.30;99.90;;;;;;7375222;19;20015;-49
2022/12/04 09:51:41;;;;;;;60.63;32.90;;;1.30;99.90;;;;;;7376491;19;20056;-47
2022/12/04 09:54:21;;;;;;;56.50;30.85;;;1.30;99.90;;;;;;7374199;19;20026;-45
2022/12/04 09:56:57;;;;;;;60.03;33.33;;;1.30;99.90;;;;;;7377081;19;20030;-45
2022/12/04 09:59:26;;;;;;;61.72;33.30;;;1.40;99.90;;;;;;7371533;19;20018;-50
2022/12/04 10:02:31;;;;;;;55.42;29.08;;;1.40;99.90;;;;;;7377284;19;20488;-46
2022/12/04 10:04:58;;;;;;;53.58;29.20;;;1.40;99.90;;;;;;7377023;19;20014;-48
2022/12/04 10:07:31;;;;;;;54.63;29.83;;;1.50;99.90;;;;;;7377393;19;20018;-44
2022/12/04 10:10:11;;;;;;;54.05;31.33;;;1.50;99.90;;;;;;7377801;19;20018;-45
2022/12/04 10:13:05;;;;;;;51.67;29.67;;;1.50;99.90;;;;;;7376012;19;20018;-46
2022/12/04 10:15:34;;;;;;;79.82;47.33;;;1.50;99.90;;;;;;7376011;19;20453;-46
2022/12/04 10:18:06;;;;;;;55.95;30.35;;;1.60;99.90;;;;;;7373053;19;20051;-45
2022/12/04 10:20:47;;;;;;;47.25;29.10;;;1.60;99.90;;;;;;7373923;19;20457;-44
2022/12/04 10:23:44;;;;;;;63.30;34.50;;;1.60;99.90;;;;;;7373087;19;20917;-45
2022/12/04 10:26:15;;;;;;;49.97;28.80;;;1.60;99.90;;;;;;7375686;19;20368;-45
2022/12/04 10:29:01;;;;;;;49.90;29.23;;;1.70;99.90;;;;;;7374753;19;20019;-43
2022/12/04 10:31:30;;;;;;;50.50;28.77;;;1.70;99.90;;;;;;7370843;19;20018;-49
2022/12/04 10:34:21;;;;;;;46.72;28.52;;;1.70;99.90;;;;;;7373712;19;20477;-49
2022/12/04 10:36:50;;;;;;;;;;;1.70;99.90;;;;;;7374038;19;20422;-48
2022/12/04 10:39:23;;;;;;;51.78;28.23;;;1.80;99.90;;;;;;7375148;19;20537;-44
2022/12/04 10:42:29;;;;;;;50.42;28.55;;;1.80;99.90;;;;;;7371432;19;20019;-45
2022/12/04 10:44:56;;;;;;;49.80;27.85;;;1.80;99.90;;;;;;7372703;19;20496;-46
2022/12/04 10:47:24;;;;;;;40.53;25.30;;;1.80;99.90;;;;;;7369727;19;20545;-46
2022/12/04 10:50:13;;;;;;;52.38;28.80;;;1.90;99.90;;;;;;7371080;19;20018;-47
2022/12/04 10:52:40;;;;;;;38.63;24.35;;;1.90;99.90;;;;;;7370333;19;20058;-46
2022/12/04 10:55:07;;;;;;;44.15;25.58;;;1.90;99.90;;;;;;7372809;19;20027;-45
2022/12/04 10:57:36;;;;;;;51.40;30.45;;;2.00;99.90;;;;;;7368197;19;20858;-47
2022/12/04 11:00:23;;;;;;;39.63;24.02;;;2.00;99.90;;;;;;7369557;19;20388;-46
2022/12/04 11:02:51;;;;;;;41.65;23.98;;;2.00;99.90;;;;;;7366685;19;20596;-45
2022/12/04 11:05:31;;;;;;;62.67;37.67;;;2.10;99.90;;;;;;7370598;19;20362;-48
2022/12/04 11:07:58;;;;;;;38.65;22.88;;;2.00;99.90;;;;;;7371386;19;20029;-51
2022/12/04 11:10:42;;;;;;;38.85;22.92;;;2.10;99.90;;;;;;7371324;19;20022;-49
2022/12/04 11:13:16;;;;;;;35.50;22.77;;;2.10;99.90;;;;;;7372190;19;20022;-51
2022/12/04 11:15:48;;;;;;;49.38;29.90;;;2.20;99.90;;;;;;7372313;19;20470;-51
2022/12/04 11:18:25;;;;;;;55.88;32.15;;;2.20;99.90;;;;;;7368288;19;20103;-50
2022/12/04 11:21:21;;;;;;;41.10;25.83;;;2.30;99.90;;;;;;7374033;19;20391;-52
2022/12/04 11:23:49;;;;;;;35.60;22.17;;;2.30;99.90;;;;;;7371225;19;20449;-50
2022/12/04 11:26:29;;;;;;;32.30;19.98;;;2.30;99.90;;;;;;7366820;19;20022;-45
2022/12/04 11:28:57;;;;;;;48.50;28.58;;;2.40;99.90;;;;;;7364795;19;22014;-48
2022/12/04 11:31:24;;;;;;;35.85;23.00;;;2.40;99.90;;;;;;7368615;19;20022;-51
2022/12/04 11:33:54;;;;;;;35.38;22.20;;;2.40;99.90;;;;;;7371515;19;20025;-45
2022/12/04 11:36:42;;;;;;;34.38;20.85;;;2.40;99.90;;;;;;7368665;19;20486;-49
2022/12/04 11:39:16;;;;;;;37.85;24.05;;;2.50;99.90;;;;;;7371772;19;20485;-52
2022/12/04 11:41:43;;;;;;;24.27;14.05;;;2.60;99.90;;;;;;7373675;19;20392;-51
2022/12/04 11:44:25;;;;;;;33.65;22.35;;;2.60;99.90;;;;;;7379195;19;20503;-48
2022/12/04 11:46:54;;;;;;;33.22;21.00;;;2.60;99.90;;;;;;7380998;19;20413;-51
2022/12/04 11:49:22;;;;;;;32.42;19.90;;;2.60;99.90;;;;;;7378847;19;20023;-51
2022/12/04 11:52:10;;;;;;;31.13;18.10;;;2.60;99.90;;;;;;7378632;19;20038;-51
2022/12/04 11:55:08;;;;;;;29.00;18.27;;;2.60;99.90;;;;;;7374601;19;20023;-44
2022/12/04 11:58:00;;;;;;;31.40;18.90;;;2.60;99.90;;;;;;7374339;19;20283;-46
2022/12/04 12:00:27;;;;;;;36.65;21.98;;;2.60;99.90;;;;;;7374203;19;20030;-47
2022/12/04 12:03:13;;;;;;;29.77;19.75;;;2.60;99.90;;;;;;7376827;19;20027;-49
2022/12/04 12:06:11;;;;;;;45.40;29.42;;;2.60;99.90;;;;;;7377976;19;20410;-51
2022/12/04 12:08:51;;;;;;;26.42;18.02;;;2.60;99.90;;;;;;7377081;19;20511;-45
2022/12/04 12:11:30;;;;;;;30.60;19.98;;;2.50;99.90;;;;;;7371122;19;20097;-45
2022/12/04 12:14:08;;;;;;;33.60;19.67;;;2.50;99.90;;;;;;7378118;19;20473;-46
2022/12/04 12:17:10;;;;;;;33.60;20.80;;;2.50;99.90;;;;;;7371953;19;20106;-48
2022/12/04 12:19:47;;;;;;;27.57;17.03;;;2.50;99.90;;;;;;7375926;19;20030;-46
2022/12/04 12:22:26;;;;;;;30.13;19.73;;;2.60;99.90;;;;;;7369265;19;20014;-46
2022/12/04 12:25:11;;;;;;;25.60;15.45;;;2.50;99.90;;;;;;7349072;19;20022;-47
2022/12/04 12:28:12;;;;;;;28.60;16.98;;;2.60;99.90;;;;;;7366220;19;20011;-47
2022/12/04 12:31:03;;;;;;;33.00;20.88;;;2.60;99.90;;;;;;7370125;19;20023;-45
2022/12/04 12:33:41;;;;;;;30.75;17.48;;;2.50;99.90;;;;;;7372031;19;20114;-45
2022/12/04 12:36:13;;;;;;;30.33;20.70;;;2.60;99.90;;;;;;7366272;19;20037;-46
2022/12/04 12:38:59;;;;;;;30.70;19.30;;;2.60;99.90;;;;;;7361538;19;20030;-45
2022/12/04 12:41:38;;;;;;;36.50;22.70;;;2.60;99.90;;;;;;7362339;19;20022;-45
2022/12/04 12:44:46;;;;;;;37.80;23.40;;;2.60;99.90;;;;;;7367013;19;20321;-45
2022/12/04 12:47:18;;;;;;;27.05;17.33;;;2.60;99.90;;;;;;7364038;19;20026;-45
2022/12/04 12:49:56;;;;;;;30.40;18.02;;;2.60;99.90;;;;;;7363901;19;20018;-45
2022/12/04 12:52:38;;;;;;;29.90;19.33;;;2.60;99.90;;;;;;7366915;19;20074;-47
2022/12/04 12:55:19;;;;;;;27.90;16.73;;;2.60;99.90;;;;;;7367373;19;20053;-46
2022/12/04 12:57:51;;;;;;;31.92;19.85;;;2.60;99.90;;;;;;7362549;19;20040;-48
2022/12/04 13:00:21;;;;;;;29.23;18.27;;;2.60;99.90;;;;;;7364878;19;20030;-46
2022/12/04 13:03:14;;;;;;;28.98;17.48;;;2.60;99.90;;;;;;7363774;19;20026;-46
2022/12/04 13:05:45;;;;;;;28.33;17.50;;;2.60;99.90;;;;;;7366020;19;20018;-46
2022/12/04 13:08:28;;;;;;;29.83;18.42;;;2.70;99.90;;;;;;7369851;19;20014;-52
2022/12/04 13:11:13;;;;;;;38.80;23.75;;;2.60;99.90;;;;;;7367792;19;20033;-53
2022/12/04 13:13:48;;;;;;;38.70;24.05;;;2.60;99.90;;;;;;7371610;19;20025;-50
2022/12/04 13:16:17;;;;;;;;;;;2.70;99.90;;;;;;7366253;19;20600;-51